Time,TemperatureF,DewpointF,PressureIn,WindDirection,WindDirectionDegrees,WindSpeedMPH,WindSpeedGustMPH,Humidity,HourlyPrecipIn,Conditions,Clouds,dailyrainin,SolarRadiationWatts/m^2,SoftwareType,DateUTC
2013-09-06 00:03:00,56.0,52.0,-100.00,NNE,18,0.0,1.0,87,0.00,,,0.00,0.000000,,2013-09-06 05:03:00,
2013-09-06 00:12:00,56.0,52.0,-100.00,NNE,18,0.0,1.0,87,0.00,,,0.00,0.000000,,2013-09-06 05:12:00,
2013-09-06 00:43:00,56.0,52.0,-100.00,NNW,338,0.0,1.0,88,0.00,,,0.00,0.000000,,2013-09-06 05:43:00,
2013-09-06 00:52:00,56.0,52.0,-100.00,NNW,338,0.0,1.0,88,0.00,,,0.00,0.000000,,2013-09-06 05:52:00,
2013-09-06 01:02:00,56.0,52.0,-100.00,NNW,338,0.0,1.0,88,0.00,,,0.00,0.000000,,2013-09-06 06:02:00,
2013-09-06 01:12:00,56.0,52.0,-100.00,NNW,338,0.0,1.0,88,0.00,,,0.00,0.000000,,2013-09-06 06:12:00,
2013-09-06 01:42:00,55.0,52.0,-100.00,NNE,13,0.0,1.0,89,0.00,,,0.00,0.000000,,2013-09-06 06:42:00,
2013-09-06 01:53:00,55.0,52.0,-100.00,NNE,13,0.0,1.0,89,0.00,,,0.00,0.000000,,2013-09-06 06:53:00,
2013-09-06 02:01:00,55.0,52.0,-100.00,NNE,13,0.0,1.0,89,0.00,,,0.00,0.000000,,2013-09-06 07:01:00,
2013-09-06 02:12:00,55.0,52.0,-100.00,NNE,13,0.0,1.0,89,0.00,,,0.00,0.000000,,2013-09-06 07:12:00,
2013-09-06 02:42:00,56.0,52.0,-100.00,NE,52,0.0,1.0,88,0.00,,,0.00,0.000000,,2013-09-06 07:42:00,
2013-09-06 02:52:00,56.0,52.0,-100.00,NE,52,0.0,1.0,88,0.00,,,0.00,0.000000,,2013-09-06 07:52:00,
2013-09-06 03:03:00,56.0,52.0,-100.00,NE,52,0.0,1.0,88,0.00,,,0.00,0.000000,,2013-09-06 08:03:00,
2013-09-06 03:12:00,56.0,52.0,-100.00,NE,52,0.0,1.0,88,0.00,,,0.00,0.000000,,2013-09-06 08:12:00,
2013-09-06 03:42:00,56.0,53.0,-100.00,WNW,283,0.0,0.0,90,0.00,,,0.00,0.000000,,2013-09-06 08:42:00,
2013-09-06 03:52:00,56.0,53.0,-100.00,WNW,283,0.0,0.0,90,0.00,,,0.00,0.000000,,2013-09-06 08:52:00,
2013-09-06 04:02:00,56.0,53.0,-100.00,WNW,283,0.0,0.0,90,0.00,,,0.00,0.000000,,2013-09-06 09:02:00,
2013-09-06 04:11:00,56.0,53.0,-100.00,WNW,283,0.0,0.0,90,0.00,,,0.00,0.000000,,2013-09-06 09:11:00,
2013-09-06 07:42:00,63.0,62.0,-100.00,SSE,156,2.0,6.0,96,-99.99,,,0.00,10.000000,,2013-09-06 12:42:00,
2013-09-06 07:52:00,63.0,62.0,-100.00,SSE,156,2.0,6.0,96,-99.99,,,0.00,10.000000,,2013-09-06 12:52:00,
2013-09-06 08:02:00,63.0,62.0,-100.00,SSE,156,2.0,6.0,96,-99.99,,,0.00,10.000000,,2013-09-06 13:02:00,
2013-09-06 08:11:00,63.0,62.0,-100.00,SSE,156,2.0,6.0,96,-99.99,,,0.00,10.000000,,2013-09-06 13:11:00,
2013-09-06 08:42:00,70.0,66.0,-100.00,SSE,160,3.0,8.0,87,0.00,,,-99.99,98.000000,,2013-09-06 13:42:00,
2013-09-06 08:52:00,70.0,66.0,-100.00,SSE,160,3.0,8.0,87,0.00,,,-99.99,98.000000,,2013-09-06 13:52:00,
2013-09-06 09:02:00,70.0,66.0,-100.00,SSE,160,3.0,8.0,87,0.00,,,-99.99,98.000000,,2013-09-06 14:02:00,
2013-09-06 09:11:00,70.0,66.0,-100.00,SSE,160,3.0,8.0,87,0.00,,,-99.99,98.000000,,2013-09-06 14:11:00,
2013-09-06 09:42:00,75.0,66.0,-100.00,SSE,167,6.0,13.0,74,0.00,,,0.00,253.000000,,2013-09-06 14:42:00,
2013-09-06 09:52:00,75.0,66.0,-100.00,SSE,167,6.0,13.0,74,0.00,,,0.00,253.000000,,2013-09-06 14:52:00,
2013-09-06 10:01:00,75.0,66.0,-100.00,SSE,167,6.0,13.0,74,0.00,,,0.00,253.000000,,2013-09-06 15:01:00,
2013-09-06 10:11:00,75.0,66.0,-100.00,SSE,167,6.0,13.0,74,0.00,,,0.00,253.000000,,2013-09-06 15:11:00,
2013-09-06 10:43:00,78.0,66.0,-100.00,South,179,6.0,14.0,66,0.00,,,0.00,339.000000,,2013-09-06 15:43:00,
2013-09-06 10:53:00,78.0,66.0,-100.00,South,179,6.0,14.0,66,0.00,,,0.00,339.000000,,2013-09-06 15:53:00,
2013-09-06 11:04:00,78.0,66.0,-100.00,South,179,6.0,14.0,66,0.00,,,0.00,339.000000,,2013-09-06 16:04:00,
2013-09-06 11:13:00,78.0,66.0,-100.00,South,179,6.0,14.0,66,0.00,,,0.00,339.000000,,2013-09-06 16:13:00,
2013-09-06 11:43:00,79.0,67.0,-100.00,South,173,5.0,13.0,66,0.00,,,0.00,230.000000,,2013-09-06 16:43:00,
2013-09-06 11:53:00,79.0,67.0,-100.00,South,173,5.0,13.0,66,0.00,,,0.00,230.000000,,2013-09-06 16:53:00,
2013-09-06 12:03:00,79.0,67.0,-100.00,South,173,5.0,13.0,66,0.00,,,0.00,230.000000,,2013-09-06 17:03:00,
2013-09-06 12:13:00,79.0,67.0,-100.00,South,173,5.0,13.0,66,0.00,,,0.00,230.000000,,2013-09-06 17:13:00,
2013-09-06 12:43:00,84.0,63.0,-100.00,SSW,198,8.0,17.0,50,0.00,,,0.00,483.000000,,2013-09-06 17:43:00,
2013-09-06 12:53:00,84.0,63.0,-100.00,SSW,198,8.0,17.0,50,0.00,,,0.00,483.000000,,2013-09-06 17:53:00,
2013-09-06 13:02:00,84.0,63.0,-100.00,SSW,198,8.0,17.0,50,0.00,,,0.00,483.000000,,2013-09-06 18:02:00,
2013-09-06 13:12:00,84.0,63.0,-100.00,SSW,198,8.0,17.0,50,0.00,,,0.00,483.000000,,2013-09-06 18:12:00,
2013-09-06 13:42:00,86.0,60.0,-100.00,SW,214,8.0,18.0,42,0.00,,,0.00,669.000000,,2013-09-06 18:42:00,
2013-09-06 13:52:00,86.0,60.0,-100.00,SW,214,8.0,18.0,42,0.00,,,0.00,669.000000,,2013-09-06 18:52:00,
2013-09-06 14:02:00,86.0,60.0,-100.00,SW,214,8.0,18.0,42,0.00,,,0.00,669.000000,,2013-09-06 19:02:00,
2013-09-06 14:12:00,86.0,60.0,-100.00,SW,214,8.0,18.0,42,0.00,,,0.00,669.000000,,2013-09-06 19:12:00,
2013-09-06 14:43:00,88.0,60.0,-100.00,SSW,201,6.0,16.0,39,0.00,,,0.00,643.000000,,2013-09-06 19:43:00,
2013-09-06 14:52:00,88.0,60.0,-100.00,SSW,201,6.0,16.0,39,0.00,,,0.00,643.000000,,2013-09-06 19:52:00,
2013-09-06 15:02:00,88.0,60.0,-100.00,SSW,201,6.0,16.0,39,0.00,,,0.00,643.000000,,2013-09-06 20:02:00,
2013-09-06 15:12:00,88.0,60.0,-100.00,SSW,201,6.0,16.0,39,0.00,,,0.00,643.000000,,2013-09-06 20:12:00,
2013-09-06 15:42:00,91.0,58.0,-100.00,SSW,203,8.0,17.0,33,0.00,,,0.00,581.000000,,2013-09-06 20:42:00,
2013-09-06 15:52:00,91.0,58.0,-100.00,SSW,203,8.0,17.0,33,0.00,,,0.00,581.000000,,2013-09-06 20:52:00,
2013-09-06 16:01:00,91.0,58.0,-100.00,SSW,203,8.0,17.0,33,0.00,,,0.00,581.000000,,2013-09-06 21:01:00,
2013-09-06 16:12:00,91.0,58.0,-100.00,SSW,203,8.0,17.0,33,0.00,,,0.00,581.000000,,2013-09-06 21:12:00,
2013-09-06 16:43:00,91.0,59.0,-100.00,SSW,209,7.0,18.0,34,0.00,,,0.00,501.000000,,2013-09-06 21:43:00,
2013-09-06 16:54:00,91.0,59.0,-100.00,SSW,209,7.0,18.0,34,0.00,,,0.00,501.000000,,2013-09-06 21:54:00,
2013-09-06 17:04:00,91.0,59.0,-100.00,SSW,209,7.0,18.0,34,0.00,,,0.00,501.000000,,2013-09-06 22:04:00,
2013-09-06 17:13:00,91.0,59.0,-100.00,SSW,209,7.0,18.0,34,0.00,,,0.00,501.000000,,2013-09-06 22:13:00,
2013-09-06 17:44:00,90.0,60.0,-100.00,SSW,207,4.0,15.0,37,0.00,,,0.00,336.000000,,2013-09-06 22:44:00,
2013-09-06 17:54:00,90.0,60.0,-100.00,SSW,207,4.0,15.0,37,0.00,,,0.00,336.000000,,2013-09-06 22:54:00,
2013-09-06 18:03:00,90.0,60.0,-100.00,SSW,207,4.0,15.0,37,0.00,,,0.00,336.000000,,2013-09-06 23:03:00,
2013-09-06 18:12:00,90.0,60.0,-100.00,SSW,207,4.0,15.0,37,0.00,,,0.00,336.000000,,2013-09-06 23:12:00,
2013-09-06 18:43:00,88.0,61.0,-100.00,SSW,208,3.0,11.0,40,0.00,,,0.00,142.000000,,2013-09-06 23:43:00,
2013-09-06 18:52:00,88.0,61.0,-100.00,SSW,208,3.0,11.0,40,0.00,,,0.00,142.000000,,2013-09-06 23:52:00,
2013-09-06 19:01:00,88.0,61.0,-100.00,SSW,208,3.0,11.0,40,0.00,,,0.00,142.000000,,2013-09-07 00:01:00,
2013-09-06 19:12:00,88.0,61.0,-100.00,SSW,208,3.0,11.0,40,0.00,,,0.00,142.000000,,2013-09-07 00:12:00,
2013-09-06 19:42:00,82.0,63.0,-100.00,SSE,159,1.0,7.0,53,0.00,,,0.00,49.000000,,2013-09-07 00:42:00,
2013-09-06 19:52:00,82.0,63.0,-100.00,SSE,159,1.0,7.0,53,0.00,,,0.00,49.000000,,2013-09-07 00:52:00,
2013-09-06 20:02:00,82.0,63.0,-100.00,SSE,159,1.0,7.0,53,0.00,,,0.00,49.000000,,2013-09-07 01:02:00,
2013-09-06 20:12:00,82.0,63.0,-100.00,SSE,159,1.0,7.0,53,0.00,,,0.00,49.000000,,2013-09-07 01:12:00,
2013-09-06 20:42:00,75.0,65.0,-100.00,ESE,117,0.0,4.0,71,0.00,,,0.00,7.000000,,2013-09-07 01:42:00,
2013-09-06 20:53:00,75.0,65.0,-100.00,ESE,117,0.0,4.0,71,0.00,,,0.00,7.000000,,2013-09-07 01:53:00,
2013-09-06 21:02:00,75.0,65.0,-100.00,ESE,117,0.0,4.0,71,0.00,,,0.00,7.000000,,2013-09-07 02:02:00,
2013-09-06 21:12:00,75.0,65.0,-100.00,ESE,117,0.0,4.0,71,0.00,,,0.00,7.000000,,2013-09-07 02:12:00,
2013-09-06 21:43:00,72.0,66.0,-100.00,NNE,17,0.0,3.0,81,0.00,,,0.00,0.000000,,2013-09-07 02:43:00,
2013-09-06 21:52:00,72.0,66.0,-100.00,NNE,17,0.0,3.0,81,0.00,,,0.00,0.000000,,2013-09-07 02:52:00,
2013-09-06 22:02:00,72.0,66.0,-100.00,NNE,17,0.0,3.0,81,0.00,,,0.00,0.000000,,2013-09-07 03:02:00,
2013-09-06 22:12:00,72.0,66.0,-100.00,NNE,17,0.0,3.0,81,0.00,,,0.00,0.000000,,2013-09-07 03:12:00,
2013-09-06 22:45:00,72.0,65.0,-100.00,SE,139,0.0,3.0,80,0.00,,,0.00,0.000000,,2013-09-07 03:45:00,
2013-09-06 22:55:00,72.0,65.0,-100.00,SE,139,0.0,3.0,80,0.00,,,0.00,0.000000,,2013-09-07 03:55:00,
2013-09-06 23:04:00,72.0,65.0,-100.00,SE,139,0.0,3.0,80,0.00,,,0.00,0.000000,,2013-09-07 04:04:00,
2013-09-06 23:14:00,72.0,65.0,-100.00,SE,139,0.0,3.0,80,0.00,,,0.00,0.000000,,2013-09-07 04:14:00,
2013-09-06 23:43:00,72.0,66.0,-100.00,NE,52,0.0,3.0,82,0.00,,,0.00,0.000000,,2013-09-07 04:43:00,
2013-09-06 23:54:00,72.0,66.0,-100.00,NE,52,0.0,3.0,82,0.00,,,0.00,0.000000,,2013-09-07 04:54:00,